レゾリュート の空港の天気 - METARとTAF

レゾリュート空港 ( CYRB / YRB ) - カナダ ヌナブト準州レゾリュート
飛行場実況気象(Metar)
観測時間04/25 01:00 CDT (04/25 06:00 UTC)
風向・風速南南東 2m/s
視程10km以上
天気現象弱い雪
全天を覆う雲 雲底高度 1680m
気温-21℃
湿度70%
気圧1010.8hPa
METARCYRB 250600Z 15004KT 8SM -SN OVC055 M21/M25 A2981 RMK SC8 SLP108
過去の天気等 Google飛行場航空写真 Wunderground天気予報

過去48時間のMETAR

飛行場予報(TAF)
発表時間: 4/25 00:38 CDT (4/25 05:38 UTC)
予報対象時間: 25日1時 CDT ~ 26日1時 CDT
風向・風速不定 2m/s
視程10km以上
全天の4割程度の雲 雲底高度 1,220m
全天を覆う雲 雲底高度 1,830m
25日1時 CDT ~ 25日10時 CDT に一時的に
視程8,050m
天気現象弱い雪
全天を覆う雲 雲底高度 1,220m
25日10時 CDT から
風向・風速不定 2m/s
視程10km以上
天気現象弱い雪
全天の4割程度の雲 雲底高度 610m
全天を覆う雲 雲底高度 1,220m
25日10時 CDT ~ 26日1時 CDT に一時的に
視程8,050m
天気現象弱い雪
全天を覆う雲 雲底高度 610m
25日11時 CDT ~ 25日13時 CDT に徐々に
風向・風速北北西 4m/s
TAF CYRB 250538Z 2506/2606 VRB03KT P6SM SCT040 OVC060
TEMPO 2506/2515 5SM -SN OVC040
FM251500 VRB03KT P6SM -SN SCT020 OVC040
TEMPO 2515/2606 5SM -SN OVC020
BECMG 2516/2518 33008KT RMK NXT FCST BY 251200Z